sensor_id;sensor_type;location;lat;lon;timestamp;pressure;altitude;pressure_sealevel;temperature;humidity
16580;BME280;8402;51.466;6.806;2023-03-21T00:00:53;101427.03;;;11.81;86.56
16580;BME280;8402;51.466;6.806;2023-03-21T00:03:23;101434.59;;;11.84;86.72
16580;BME280;8402;51.466;6.806;2023-03-21T00:05:54;101422.91;;;11.84;86.44
16580;BME280;8402;51.466;6.806;2023-03-21T00:08:27;101428.56;;;11.88;86.51
16580;BME280;8402;51.466;6.806;2023-03-21T00:10:58;101424.72;;;11.89;86.06
16580;BME280;8402;51.466;6.806;2023-03-21T00:13:29;101420.88;;;11.90;86.10
16580;BME280;8402;51.466;6.806;2023-03-21T00:16:03;101412.09;;;11.93;86.03
16580;BME280;8402;51.466;6.806;2023-03-21T00:18:48;101415.03;;;11.96;85.87
16580;BME280;8402;51.466;6.806;2023-03-21T00:21:20;101412.00;;;11.98;85.78
16580;BME280;8402;51.466;6.806;2023-03-21T00:24:17;101414.53;;;11.94;85.26
16580;BME280;8402;51.466;6.806;2023-03-21T00:26:48;101410.50;;;11.92;84.94
16580;BME280;8402;51.466;6.806;2023-03-21T00:29:19;101413.03;;;11.88;84.67
16580;BME280;8402;51.466;6.806;2023-03-21T00:31:49;101407.38;;;11.84;84.80
16580;BME280;8402;51.466;6.806;2023-03-21T00:34:19;101416.66;;;11.83;85.36
16580;BME280;8402;51.466;6.806;2023-03-21T00:37:09;101410.72;;;11.81;85.32
16580;BME280;8402;51.466;6.806;2023-03-21T00:39:48;101410.22;;;11.79;84.42
16580;BME280;8402;51.466;6.806;2023-03-21T00:42:22;101400.41;;;11.78;84.83
16580;BME280;8402;51.466;6.806;2023-03-21T00:44:53;101404.78;;;11.79;84.69
16580;BME280;8402;51.466;6.806;2023-03-21T00:47:22;101397.69;;;11.78;84.64
16580;BME280;8402;51.466;6.806;2023-03-21T00:49:52;101393.38;;;11.77;84.58
16580;BME280;8402;51.466;6.806;2023-03-21T00:52:23;101396.09;;;11.77;84.64
16580;BME280;8402;51.466;6.806;2023-03-21T00:55:11;101388.06;;;11.72;84.22
16580;BME280;8402;51.466;6.806;2023-03-21T00:57:42;101390.47;;;11.74;84.71
16580;BME280;8402;51.466;6.806;2023-03-21T01:00:19;101395.13;;;11.73;84.51
16580;BME280;8402;51.466;6.806;2023-03-21T01:02:48;101391.69;;;11.68;84.67
16580;BME280;8402;51.466;6.806;2023-03-21T01:05:50;101386.69;;;11.61;85.33
16580;BME280;8402;51.466;6.806;2023-03-21T01:08:35;101382.66;;;11.58;86.02
16580;BME280;8402;51.466;6.806;2023-03-21T01:11:26;101373.41;;;11.60;85.80
16580;BME280;8402;51.466;6.806;2023-03-21T01:13:57;101373.09;;;11.61;85.92
16580;BME280;8402;51.466;6.806;2023-03-21T01:16:47;101371.97;;;11.62;86.35
16580;BME280;8402;51.466;6.806;2023-03-21T01:19:18;101364.63;;;11.63;85.91
16580;BME280;8402;51.466;6.806;2023-03-21T01:21:58;101368.94;;;11.64;85.82
16580;BME280;8402;51.466;6.806;2023-03-21T01:24:28;101362.69;;;11.63;85.79
16580;BME280;8402;51.466;6.806;2023-03-21T01:27:05;101364.44;;;11.59;85.83
16580;BME280;8402;51.466;6.806;2023-03-21T01:29:35;101361.72;;;11.59;85.81
16580;BME280;8402;51.466;6.806;2023-03-21T01:32:05;101361.72;;;11.59;85.81
16580;BME280;8402;51.466;6.806;2023-03-21T01:34:35;101357.41;;;11.58;86.29
16580;BME280;8402;51.466;6.806;2023-03-21T01:37:05;101365.03;;;11.56;86.21
16580;BME280;8402;51.466;6.806;2023-03-21T01:39:35;101363.91;;;11.57;85.93
16580;BME280;8402;51.466;6.806;2023-03-21T01:42:09;101358.47;;;11.57;86.05
16580;BME280;8402;51.466;6.806;2023-03-21T01:44:52;101355.28;;;11.55;85.88
16580;BME280;8402;51.466;6.806;2023-03-21T01:47:22;101357.41;;;11.58;85.92
16580;BME280;8402;51.466;6.806;2023-03-21T01:49:54;101350.84;;;11.59;85.93
16580;BME280;8402;51.466;6.806;2023-03-21T01:52:29;101350.84;;;11.59;85.66
16580;BME280;8402;51.466;6.806;2023-03-21T01:55:06;101350.84;;;11.59;85.66
16580;BME280;8402;51.466;6.806;2023-03-21T01:57:45;101357.88;;;11.60;85.66
16580;BME280;8402;51.466;6.806;2023-03-21T02:00:31;101355.97;;;11.61;85.81
16580;BME280;8402;51.466;6.806;2023-03-21T02:03:05;101354.06;;;11.61;85.78
16580;BME280;8402;51.466;6.806;2023-03-21T02:05:58;101349.25;;;11.58;85.44
16580;BME280;8402;51.466;6.806;2023-03-21T02:08:30;101345.53;;;11.54;85.87
16580;BME280;8402;51.466;6.806;2023-03-21T02:11:06;101341.69;;;11.55;86.09
16580;BME280;8402;51.466;6.806;2023-03-21T02:13:39;101342.31;;;11.52;85.91
16580;BME280;8402;51.466;6.806;2023-03-21T02:16:14;101330.31;;;11.53;86.17
16580;BME280;8402;51.466;6.806;2023-03-21T02:18:53;101329.22;;;11.54;86.22
16580;BME280;8402;51.466;6.806;2023-03-21T02:21:50;101324.88;;;11.53;86.47
16580;BME280;8402;51.466;6.806;2023-03-21T02:24:42;101324.88;;;11.53;86.28
16580;BME280;8402;51.466;6.806;2023-03-21T02:27:28;101327.50;;;11.58;86.38
16580;BME280;8402;51.466;6.806;2023-03-21T02:30:33;101325.88;;;11.57;86.70
16580;BME280;8402;51.466;6.806;2023-03-21T02:39:25;101309.94;;;11.64;86.78
16580;BME280;8402;51.466;6.806;2023-03-21T02:42:02;101304.41;;;11.69;86.46
16580;BME280;8402;51.466;6.806;2023-03-21T02:44:41;101306.53;;;11.72;86.90
16580;BME280;8402;51.466;6.806;2023-03-21T02:47:17;101304.78;;;11.76;86.97
16580;BME280;8402;51.466;6.806;2023-03-21T02:49:53;101304.78;;;11.76;86.97
16580;BME280;8402;51.466;6.806;2023-03-21T02:52:26;101299.81;;;11.78;86.97
16580;BME280;8402;51.466;6.806;2023-03-21T02:55:10;101291.66;;;11.78;86.80
16580;BME280;8402;51.466;6.806;2023-03-21T02:57:43;101292.22;;;11.80;87.15
16580;BME280;8402;51.466;6.806;2023-03-21T03:00:17;101289.97;;;11.82;87.13
16580;BME280;8402;51.466;6.806;2023-03-21T03:02:49;101292.22;;;11.80;87.04
16580;BME280;8402;51.466;6.806;2023-03-21T03:05:35;101284.84;;;11.81;87.17
16580;BME280;8402;51.466;6.806;2023-03-21T03:08:18;101291.38;;;11.80;87.48
16580;BME280;8402;51.466;6.806;2023-03-21T03:11:17;101284.63;;;11.77;87.07
16580;BME280;8402;51.466;6.806;2023-03-21T03:13:56;101279.69;;;11.79;87.11
16580;BME280;8402;51.466;6.806;2023-03-21T03:16:58;101279.19;;;11.77;86.89
16580;BME280;8402;51.466;6.806;2023-03-21T03:19:38;101270.22;;;11.77;86.98
16580;BME280;8402;51.466;6.806;2023-03-21T03:22:20;101275.94;;;11.67;87.80
16580;BME280;8402;51.466;6.806;2023-03-21T03:24:56;101277.84;;;11.66;87.38
16580;BME280;8402;51.466;6.806;2023-03-21T03:27:48;101280.03;;;11.64;87.23
16580;BME280;8402;51.466;6.806;2023-03-21T03:30:20;101274.91;;;11.63;87.33
16580;BME280;8402;51.466;6.806;2023-03-21T03:32:59;101274.13;;;11.62;87.25
16580;BME280;8402;51.466;6.806;2023-03-21T03:35:32;101275.88;;;11.58;87.45
16580;BME280;8402;51.466;6.806;2023-03-21T03:38:05;101267.72;;;11.58;87.27
16580;BME280;8402;51.466;6.806;2023-03-21T03:40:40;101275.34;;;11.56;87.29
16580;BME280;8402;51.466;6.806;2023-03-21T03:43:18;101268.63;;;11.53;87.06
16580;BME280;8402;51.466;6.806;2023-03-21T03:45:55;101275.97;;;11.53;87.08
16580;BME280;8402;51.466;6.806;2023-03-21T03:48:29;101270.53;;;11.53;87.37
16580;BME280;8402;51.466;6.806;2023-03-21T03:51:05;101265.69;;;11.50;87.50
16580;BME280;8402;51.466;6.806;2023-03-21T03:53:40;101259.28;;;11.46;87.57
16580;BME280;8402;51.466;6.806;2023-03-21T03:56:14;101266.31;;;11.47;87.73
16580;BME280;8402;51.466;6.806;2023-03-21T03:58:46;101260.88;;;11.47;87.65
16580;BME280;8402;51.466;6.806;2023-03-21T04:01:17;101254.34;;;11.48;87.54
16580;BME280;8402;51.466;6.806;2023-03-21T04:03:48;101255.47;;;11.47;87.73
16580;BME280;8402;51.466;6.806;2023-03-21T04:06:36;101251.72;;;11.43;87.52
16580;BME280;8402;51.466;6.806;2023-03-21T04:09:05;101250.66;;;11.44;87.70
16580;BME280;8402;51.466;6.806;2023-03-21T04:11:47;101253.84;;;11.46;87.79
16580;BME280;8402;51.466;6.806;2023-03-21T04:14:20;101244.59;;;11.47;88.01
16580;BME280;8402;51.466;6.806;2023-03-21T04:16:58;101246.19;;;11.48;87.84
16580;BME280;8402;51.466;6.806;2023-03-21T04:19:28;101252.94;;;11.50;87.80
16580;BME280;8402;51.466;6.806;2023-03-21T04:21:58;101241.75;;;11.52;87.82
16580;BME280;8402;51.466;6.806;2023-03-21T04:24:28;101244.97;;;11.54;88.08
16580;BME280;8402;51.466;6.806;2023-03-21T04:26:59;101252.81;;;11.55;87.83
16580;BME280;8402;51.466;6.806;2023-03-21T04:29:34;101246.56;;;11.55;87.88
16580;BME280;8402;51.466;6.806;2023-03-21T04:32:04;101243.53;;;11.56;87.90
16580;BME280;8402;51.466;6.806;2023-03-21T04:34:43;101244.66;;;11.55;88.08
16580;BME280;8402;51.466;6.806;2023-03-21T04:37:16;101257.44;;;11.55;87.75
16580;BME280;8402;51.466;6.806;2023-03-21T04:39:46;101244.97;;;11.54;87.86
16580;BME280;8402;51.466;6.806;2023-03-21T04:42:17;101248.97;;;11.56;87.92
16580;BME280;8402;51.466;6.806;2023-03-21T04:44:50;101248.97;;;11.56;88.28
16580;BME280;8402;51.466;6.806;2023-03-21T04:47:19;101240.00;;;11.56;88.10
16580;BME280;8402;51.466;6.806;2023-03-21T04:49:49;101243.03;;;11.54;88.24
16580;BME280;8402;51.466;6.806;2023-03-21T04:52:19;101237.28;;;11.56;88.35
16580;BME280;8402;51.466;6.806;2023-03-21T04:54:53;101241.13;;;11.55;88.55
16580;BME280;8402;51.466;6.806;2023-03-21T04:57:23;101231.84;;;11.56;88.48
16580;BME280;8402;51.466;6.806;2023-03-21T04:59:55;101226.75;;;11.54;88.56
16580;BME280;8402;51.466;6.806;2023-03-21T05:02:25;101230.88;;;11.52;88.82
16580;BME280;8402;51.466;6.806;2023-03-21T05:04:55;101226.06;;;11.49;89.05
16580;BME280;8402;51.466;6.806;2023-03-21T05:07:25;101229.41;;;11.46;89.53
16580;BME280;8402;51.466;6.806;2023-03-21T05:09:57;101228.38;;;11.42;90.22
16580;BME280;8402;51.466;6.806;2023-03-21T05:12:28;101233.03;;;11.41;90.05
16580;BME280;8402;51.466;6.806;2023-03-21T05:15:04;101224.06;;;11.41;90.34
16580;BME280;8402;51.466;6.806;2023-03-21T05:17:34;101215.13;;;11.40;90.36
16580;BME280;8402;51.466;6.806;2023-03-21T05:20:04;101215.91;;;11.41;90.50
16580;BME280;8402;51.466;6.806;2023-03-21T05:22:37;101218.03;;;11.44;90.33
16580;BME280;8402;51.466;6.806;2023-03-21T05:25:12;101217.41;;;11.47;90.66
16580;BME280;8402;51.466;6.806;2023-03-21T05:30:41;101211.53;;;11.53;90.67
16580;BME280;8402;51.466;6.806;2023-03-21T05:33:12;101211.34;;;11.50;90.80
16580;BME280;8402;51.466;6.806;2023-03-21T05:35:52;101214.56;;;11.52;91.57
16580;BME280;8402;51.466;6.806;2023-03-21T05:38:24;101211.97;;;11.47;91.74
16580;BME280;8402;51.466;6.806;2023-03-21T05:40:54;101212.47;;;11.49;91.63
16580;BME280;8402;51.466;6.806;2023-03-21T05:43:27;101212.34;;;11.54;91.77
16580;BME280;8402;51.466;6.806;2023-03-21T05:46:03;101211.22;;;11.55;91.89
16580;BME280;8402;51.466;6.806;2023-03-21T05:48:34;101217.16;;;11.57;91.87
16580;BME280;8402;51.466;6.806;2023-03-21T05:51:07;101217.16;;;11.57;91.84
16580;BME280;8402;51.466;6.806;2023-03-21T05:53:39;101212.72;;;11.61;91.98
16580;BME280;8402;51.466;6.806;2023-03-21T05:56:09;101215.75;;;11.60;92.00
16580;BME280;8402;51.466;6.806;2023-03-21T05:58:40;101214.31;;;11.62;92.06
16580;BME280;8402;51.466;6.806;2023-03-21T06:01:12;101201.69;;;11.57;92.78
16580;BME280;8402;51.466;6.806;2023-03-21T06:03:43;101213.34;;;11.58;92.64
16580;BME280;8402;51.466;6.806;2023-03-21T06:06:13;101213.16;;;11.54;93.62
16580;BME280;8402;51.466;6.806;2023-03-21T06:08:46;101212.97;;;11.51;93.38
16580;BME280;8402;51.466;6.806;2023-03-21T06:11:23;101205.91;;;11.50;93.49
16580;BME280;8402;51.466;6.806;2023-03-21T06:13:54;101220.00;;;11.52;93.71
16580;BME280;8402;51.466;6.806;2023-03-21T06:16:27;101212.34;;;11.54;93.59
16580;BME280;8402;51.466;6.806;2023-03-21T06:18:57;101208.50;;;11.55;93.13
16580;BME280;8402;51.466;6.806;2023-03-21T06:21:29;101208.50;;;11.55;93.28
16580;BME280;8402;51.466;6.806;2023-03-21T06:24:00;101206.91;;;11.54;93.21
16580;BME280;8402;51.466;6.806;2023-03-21T06:26:30;101207.53;;;11.51;93.13
16580;BME280;8402;51.466;6.806;2023-03-21T06:29:03;101200.09;;;11.43;93.55
16580;BME280;8402;51.466;6.806;2023-03-21T06:31:39;101215.44;;;11.39;93.65
16580;BME280;8402;51.466;6.806;2023-03-21T06:34:09;101204.56;;;11.39;93.97
16580;BME280;8402;51.466;6.806;2023-03-21T06:36:39;101210.00;;;11.39;93.41
16580;BME280;8402;51.466;6.806;2023-03-21T06:39:10;101210.31;;;11.37;93.53
16580;BME280;8402;51.466;6.806;2023-03-21T06:41:52;101213.81;;;11.38;93.46
16580;BME280;8402;51.466;6.806;2023-03-21T06:44:22;101217.53;;;11.42;93.41
16580;BME280;8402;51.466;6.806;2023-03-21T06:46:58;101210.47;;;11.41;93.18
16580;BME280;8402;51.466;6.806;2023-03-21T06:49:32;101215.81;;;11.46;93.06
16580;BME280;8402;51.466;6.806;2023-03-21T06:52:02;101217.41;;;11.47;93.18
16580;BME280;8402;51.466;6.806;2023-03-21T06:54:32;101210.84;;;11.48;93.18
16580;BME280;8402;51.466;6.806;2023-03-21T06:57:02;101214.69;;;11.47;93.21
16580;BME280;8402;51.466;6.806;2023-03-21T06:59:33;101214.56;;;11.52;93.17
16580;BME280;8402;51.466;6.806;2023-03-21T07:02:06;101207.53;;;11.51;93.28
16580;BME280;8402;51.466;6.806;2023-03-21T07:04:39;101204.94;;;11.46;93.23
16580;BME280;8402;51.466;6.806;2023-03-21T07:07:08;101209.75;;;11.49;93.49
16580;BME280;8402;51.466;6.806;2023-03-21T07:09:39;101205.75;;;11.46;93.49
16580;BME280;8402;51.466;6.806;2023-03-21T07:12:09;101204.63;;;11.47;93.57
16580;BME280;8402;51.466;6.806;2023-03-21T07:14:39;101214.91;;;11.50;93.52
16580;BME280;8402;51.466;6.806;2023-03-21T07:17:12;101218.91;;;11.53;93.69
16580;BME280;8402;51.466;6.806;2023-03-21T07:19:44;101222.91;;;11.55;93.70
16580;BME280;8402;51.466;6.806;2023-03-21T07:22:14;101223.09;;;11.59;93.35
16580;BME280;8402;51.466;6.806;2023-03-21T07:24:44;101220.19;;;11.55;93.34
16580;BME280;8402;51.466;6.806;2023-03-21T07:27:30;101213.34;;;11.58;93.36
16580;BME280;8402;51.466;6.806;2023-03-21T07:30:00;101212.34;;;11.54;93.88
16580;BME280;8402;51.466;6.806;2023-03-21T07:32:35;101213.16;;;11.54;93.74
16580;BME280;8402;51.466;6.806;2023-03-21T07:35:07;101210.13;;;11.56;93.75
16580;BME280;8402;51.466;6.806;2023-03-21T07:37:41;101205.78;;;11.55;93.45
16580;BME280;8402;51.466;6.806;2023-03-21T07:40:11;101200.84;;;11.57;93.38
16580;BME280;8402;51.466;6.806;2023-03-21T07:42:41;101197.03;;;11.58;93.64
16580;BME280;8402;51.466;6.806;2023-03-21T07:45:11;101196.41;;;11.61;93.89
16580;BME280;8402;51.466;6.806;2023-03-21T07:47:50;101194.97;;;11.64;93.84
16580;BME280;8402;51.466;6.806;2023-03-21T07:50:20;101199.97;;;11.70;93.45
16580;BME280;8402;51.466;6.806;2023-03-21T07:52:50;101191.81;;;11.70;93.53
16580;BME280;8402;51.466;6.806;2023-03-21T07:55:20;101193.75;;;11.70;92.92
16580;BME280;8402;51.466;6.806;2023-03-21T07:57:51;101191.22;;;11.73;93.30
16580;BME280;8402;51.466;6.806;2023-03-21T08:00:22;101190.59;;;11.76;93.53
16580;BME280;8402;51.466;6.806;2023-03-21T08:02:57;101201.94;;;11.78;93.09
16580;BME280;8402;51.466;6.806;2023-03-21T08:05:34;101204.56;;;11.83;93.04
16580;BME280;8402;51.466;6.806;2023-03-21T08:08:05;101202.66;;;11.84;93.26
16580;BME280;8402;51.466;6.806;2023-03-21T08:10:35;101203.97;;;11.87;93.22
16580;BME280;8402;51.466;6.806;2023-03-21T08:13:05;101199.03;;;11.89;93.27
16580;BME280;8402;51.466;6.806;2023-03-21T08:15:35;101200.31;;;11.91;92.93
16580;BME280;8402;51.466;6.806;2023-03-21T08:18:10;101201.09;;;11.92;92.86
16580;BME280;8402;51.466;6.806;2023-03-21T08:20:40;101204.50;;;11.97;93.06
16580;BME280;8402;51.466;6.806;2023-03-21T08:23:10;101201.47;;;11.99;92.88
16580;BME280;8402;51.466;6.806;2023-03-21T08:25:40;101204.38;;;12.02;93.09
16580;BME280;8402;51.466;6.806;2023-03-21T08:28:10;101202.63;;;12.06;93.20
16580;BME280;8402;51.466;6.806;2023-03-21T08:30:40;101209.84;;;12.11;93.07
16580;BME280;8402;51.466;6.806;2023-03-21T08:33:13;101202.00;;;12.09;92.87
16580;BME280;8402;51.466;6.806;2023-03-21T08:35:44;101208.25;;;12.10;93.43
16580;BME280;8402;51.466;6.806;2023-03-21T08:38:15;101212.09;;;12.09;93.61
16580;BME280;8402;51.466;6.806;2023-03-21T08:40:45;101206.66;;;12.09;94.07
16580;BME280;8402;51.466;6.806;2023-03-21T08:43:15;101206.66;;;12.09;94.37
16580;BME280;8402;51.466;6.806;2023-03-21T08:45:44;101216.28;;;12.15;94.49
16580;BME280;8402;51.466;6.806;2023-03-21T08:48:17;101221.28;;;12.22;94.66
16580;BME280;8402;51.466;6.806;2023-03-21T08:50:47;101217.00;;;12.29;94.81
16580;BME280;8402;51.466;6.806;2023-03-21T08:53:17;101216.03;;;12.34;94.91
16580;BME280;8402;51.466;6.806;2023-03-21T08:55:48;101217.94;;;12.33;94.63
16580;BME280;8402;51.466;6.806;2023-03-21T08:58:18;101212.34;;;12.30;94.51
16580;BME280;8402;51.466;6.806;2023-03-21T09:00:48;101212.50;;;12.33;94.93
16580;BME280;8402;51.466;6.806;2023-03-21T09:03:20;101218.25;;;12.23;95.83
16580;BME280;8402;51.466;6.806;2023-03-21T09:05:52;101205.13;;;12.25;95.85
16580;BME280;8402;51.466;6.806;2023-03-21T09:08:22;101208.50;;;12.31;95.58
16580;BME280;8402;51.466;6.806;2023-03-21T09:10:53;101212.50;;;12.33;95.77
16580;BME280;8402;51.466;6.806;2023-03-21T09:13:23;101209.66;;;12.38;95.79
16580;BME280;8402;51.466;6.806;2023-03-21T09:15:53;101212.84;;;12.40;96.22
16580;BME280;8402;51.466;6.806;2023-03-21T09:18:26;101206.81;;;12.44;95.91
16580;BME280;8402;51.466;6.806;2023-03-21T09:21:13;101211.59;;;12.47;96.31
16580;BME280;8402;51.466;6.806;2023-03-21T09:23:44;101204.09;;;12.52;96.23
16580;BME280;8402;51.466;6.806;2023-03-21T09:26:14;101201.25;;;12.57;96.32
16580;BME280;8402;51.466;6.806;2023-03-21T09:28:44;101199.81;;;12.60;97.22
16580;BME280;8402;51.466;6.806;2023-03-21T09:31:19;101200.75;;;12.64;96.83
16580;BME280;8402;51.466;6.806;2023-03-21T09:33:52;101206.19;;;12.64;97.33
16580;BME280;8402;51.466;6.806;2023-03-21T09:36:24;101201.88;;;12.63;97.63
16580;BME280;8402;51.466;6.806;2023-03-21T09:38:54;101198.19;;;12.59;97.75
16580;BME280;8402;51.466;6.806;2023-03-21T09:41:31;101199.91;;;12.46;98.66
16580;BME280;8402;51.466;6.806;2023-03-21T09:47:02;101194.63;;;12.50;99.35
16580;BME280;8402;51.466;6.806;2023-03-21T09:49:40;101197.66;;;12.48;99.35
16580;BME280;8402;51.466;6.806;2023-03-21T09:52:18;101201.53;;;12.56;99.45
16580;BME280;8402;51.466;6.806;2023-03-21T09:54:49;101198.19;;;12.59;99.55
16580;BME280;8402;51.466;6.806;2023-03-21T09:57:28;101191.00;;;12.63;99.49
16580;BME280;8402;51.466;6.806;2023-03-21T10:00:04;101193.91;;;12.66;100.00
16580;BME280;8402;51.466;6.806;2023-03-21T10:02:39;101179.63;;;12.70;99.11
16580;BME280;8402;51.466;6.806;2023-03-21T10:05:17;101189.41;;;12.71;99.23
16580;BME280;8402;51.466;6.806;2023-03-21T10:07:51;101190.38;;;12.75;99.06
16580;BME280;8402;51.466;6.806;2023-03-21T10:10:26;101186.19;;;12.68;98.96
16580;BME280;8402;51.466;6.806;2023-03-21T10:12:57;101172.91;;;12.67;98.91
16580;BME280;8402;51.466;6.806;2023-03-21T10:15:29;101178.34;;;12.67;98.99
16580;BME280;8402;51.466;6.806;2023-03-21T10:18:00;101182.19;;;12.66;99.66
16580;BME280;8402;51.466;6.806;2023-03-21T10:20:35;101180.44;;;12.70;99.29
16580;BME280;8402;51.466;6.806;2023-03-21T10:23:09;101174.50;;;12.68;99.98
16580;BME280;8402;51.466;6.806;2023-03-21T10:25:43;101178.84;;;12.69;99.42
16580;BME280;8402;51.466;6.806;2023-03-21T10:28:16;101170.66;;;12.69;99.95
16580;BME280;8402;51.466;6.806;2023-03-21T10:30:49;101160.75;;;12.64;99.71
16580;BME280;8402;51.466;6.806;2023-03-21T10:33:28;101152.59;;;12.64;99.98
16580;BME280;8402;51.466;6.806;2023-03-21T10:36:13;101154.78;;;12.62;100.00
16580;BME280;8402;51.466;6.806;2023-03-21T10:38:47;101136.72;;;12.66;100.00
16580;BME280;8402;51.466;6.806;2023-03-21T10:41:18;101133.03;;;12.62;99.94
16580;BME280;8402;51.466;6.806;2023-03-21T10:44:05;101126.78;;;12.62;99.77
16580;BME280;8402;51.466;6.806;2023-03-21T10:46:37;101130.81;;;12.73;99.96
16580;BME280;8402;51.466;6.806;2023-03-21T10:49:07;101125.38;;;12.73;99.96
16580;BME280;8402;51.466;6.806;2023-03-21T10:51:43;101124.38;;;12.78;99.78
16580;BME280;8402;51.466;6.806;2023-03-21T10:54:18;101124.84;;;12.71;99.82
16580;BME280;8402;51.466;6.806;2023-03-21T10:56:55;101112.22;;;12.66;100.00
16580;BME280;8402;51.466;6.806;2023-03-21T10:59:27;101110.28;;;12.67;100.00
16580;BME280;8402;51.466;6.806;2023-03-21T11:02:04;101105.97;;;12.66;100.00
16580;BME280;8402;51.466;6.806;2023-03-21T11:04:35;101095.41;;;12.73;100.00
16580;BME280;8402;51.466;6.806;2023-03-21T11:07:12;101090.28;;;12.80;100.00
16580;BME280;8402;51.466;6.806;2023-03-21T11:09:47;101092.34;;;12.83;100.00
16580;BME280;8402;51.466;6.806;2023-03-21T11:12:29;101086.28;;;12.86;100.00
16580;BME280;8402;51.466;6.806;2023-03-21T11:15:25;101089.16;;;12.90;100.00
16580;BME280;8402;51.466;6.806;2023-03-21T11:17:57;101085.28;;;13.00;100.00
16580;BME280;8402;51.466;6.806;2023-03-21T11:20:29;101087.22;;;13.08;100.00
16580;BME280;8402;51.466;6.806;2023-03-21T11:23:05;101075.53;;;13.16;100.00
16580;BME280;8402;51.466;6.806;2023-03-21T11:25:37;101078.72;;;13.27;100.00
16580;BME280;8402;51.466;6.806;2023-03-21T11:28:11;101071.53;;;13.22;99.15
16580;BME280;8402;51.466;6.806;2023-03-21T11:30:51;101081.31;;;13.23;99.25
16580;BME280;8402;51.466;6.806;2023-03-21T11:33:25;101076.16;;;13.30;98.74
16580;BME280;8402;51.466;6.806;2023-03-21T11:36:01;101072.63;;;13.38;98.69
16580;BME280;8402;51.466;6.806;2023-03-21T11:38:38;101069.72;;;13.43;98.10
16580;BME280;8402;51.466;6.806;2023-03-21T11:41:08;101073.06;;;13.49;98.21
16580;BME280;8402;51.466;6.806;2023-03-21T11:43:51;101067.28;;;13.59;98.02
16580;BME280;8402;51.466;6.806;2023-03-21T11:46:23;101056.69;;;13.58;95.41
16580;BME280;8402;51.466;6.806;2023-03-21T11:48:54;101064.22;;;13.61;95.68
16580;BME280;8402;51.466;6.806;2023-03-21T11:51:28;101068.06;;;13.60;94.70
16580;BME280;8402;51.466;6.806;2023-03-21T11:54:10;101062.75;;;13.63;94.89
16580;BME280;8402;51.466;6.806;2023-03-21T11:56:43;101069.78;;;13.73;94.91
16580;BME280;8402;51.466;6.806;2023-03-21T11:59:33;101054.34;;;13.77;94.16
16580;BME280;8402;51.466;6.806;2023-03-21T12:02:38;101052.94;;;13.71;92.19
16580;BME280;8402;51.466;6.806;2023-03-21T12:05:18;101043.28;;;13.82;93.21
16580;BME280;8402;51.466;6.806;2023-03-21T12:07:56;101049.97;;;13.93;93.31
16580;BME280;8402;51.466;6.806;2023-03-21T12:10:41;101052.34;;;13.95;92.18
16580;BME280;8402;51.466;6.806;2023-03-21T12:13:28;101054.75;;;13.96;92.41
16580;BME280;8402;51.466;6.806;2023-03-21T12:16:17;101045.72;;;14.04;92.58
16580;BME280;8402;51.466;6.806;2023-03-21T12:19:14;101042.34;;;14.08;91.77
16580;BME280;8402;51.466;6.806;2023-03-21T12:21:53;101047.31;;;14.05;90.08
16580;BME280;8402;51.466;6.806;2023-03-21T12:24:31;101041.56;;;13.98;89.52
16580;BME280;8402;51.466;6.806;2023-03-21T12:27:11;101056.25;;;13.85;88.51
16580;BME280;8402;51.466;6.806;2023-03-21T12:30:08;101042.31;;;13.78;89.15
16580;BME280;8402;51.466;6.806;2023-03-21T12:32:51;101048.16;;;13.68;88.10
16580;BME280;8402;51.466;6.806;2023-03-21T12:35:33;101039.22;;;13.59;88.42
16580;BME280;8402;51.466;6.806;2023-03-21T12:38:14;101035.81;;;13.62;89.05
16580;BME280;8402;51.466;6.806;2023-03-21T12:41:00;101029.44;;;13.58;89.52
16580;BME280;8402;51.466;6.806;2023-03-21T12:43:41;101039.81;;;13.64;89.85
16580;BME280;8402;51.466;6.806;2023-03-21T12:46:17;101028.88;;;13.73;89.44
16580;BME280;8402;51.466;6.806;2023-03-21T12:48:50;101018.81;;;13.65;89.48
16580;BME280;8402;51.466;6.806;2023-03-21T12:51:25;101013.66;;;13.72;89.54
16580;BME280;8402;51.466;6.806;2023-03-21T12:54:04;101011.84;;;13.76;89.68
16580;BME280;8402;51.466;6.806;2023-03-21T12:56:42;101003.03;;;13.79;89.38
16580;BME280;8402;51.466;6.806;2023-03-21T12:59:27;101018.09;;;13.76;88.51
16580;BME280;8402;51.466;6.806;2023-03-21T13:02:02;100998.84;;;13.82;89.45
16580;BME280;8402;51.466;6.806;2023-03-21T13:04:41;100995.50;;;13.76;87.66
16580;BME280;8402;51.466;6.806;2023-03-21T13:07:16;101004.94;;;13.78;88.48
16580;BME280;8402;51.466;6.806;2023-03-21T13:09:47;100989.06;;;13.81;88.36
16580;BME280;8402;51.466;6.806;2023-03-21T13:12:32;100992.28;;;13.74;87.98
16580;BME280;8402;51.466;6.806;2023-03-21T13:18:04;100969.16;;;13.80;88.35
16580;BME280;8402;51.466;6.806;2023-03-21T13:20:47;100966.22;;;13.85;88.55
16580;BME280;8402;51.466;6.806;2023-03-21T13:23:22;100967.19;;;13.89;88.67
16580;BME280;8402;51.466;6.806;2023-03-21T13:25:59;100960.41;;;13.95;87.84
16580;BME280;8402;51.466;6.806;2023-03-21T13:28:30;100958.81;;;13.94;88.28
16580;BME280;8402;51.466;6.806;2023-03-21T13:31:20;100954.94;;;13.95;87.75
16580;BME280;8402;51.466;6.806;2023-03-21T13:33:57;100944.31;;;14.02;87.98
16580;BME280;8402;51.466;6.806;2023-03-21T13:36:32;100943.44;;;14.11;87.65
16580;BME280;8402;51.466;6.806;2023-03-21T13:39:17;100946.84;;;14.08;87.10
16580;BME280;8402;51.466;6.806;2023-03-21T13:41:50;100947.41;;;14.13;86.68
16580;BME280;8402;51.466;6.806;2023-03-21T13:44:24;100942.31;;;14.12;86.42
16580;BME280;8402;51.466;6.806;2023-03-21T13:47:04;100936.84;;;14.12;86.37
16580;BME280;8402;51.466;6.806;2023-03-21T13:49:36;100935.25;;;14.11;86.42
16580;BME280;8402;51.466;6.806;2023-03-21T13:52:25;100932.72;;;14.05;85.86
16580;BME280;8402;51.466;6.806;2023-03-21T13:55:01;100936.19;;;14.15;85.94
16580;BME280;8402;51.466;6.806;2023-03-21T13:57:36;100932.59;;;14.23;86.58